Time;durP1;ratioP1;P1;durP2;ratioP2;P2;SDS_P1;SDS_P2;PMS_P1;PMS_P2;Temp;Humidity;BMP_temperature;BMP_pressure;BME280_temperature;BME280_humidity;BME280_pressure;Samples;Min_cycle;Max_cycle;Signal;HPM_P1;HPM_P2
2022/02/03 00:07:39;;;;;;;2.40;1.48;;;11.50;74.50;;;;;;5031744;28;20052;-77
2022/02/03 00:26:30;;;;;;;3.95;1.30;;;11.50;74.40;;;;;;5031394;28;20036;-77
2022/02/03 00:28:57;;;;;;;2.35;1.20;;;11.50;74.50;;;;;;5023129;28;20044;-77
2022/02/03 00:31:44;;;;;;;5.38;1.75;;;11.40;74.30;;;;;;4994975;28;20105;-77
2022/02/03 00:34:21;;;;;;;2.83;1.85;;;11.40;74.30;;;;;;5029129;28;20040;-77
2022/02/03 00:37:16;;;;;;;2.67;1.13;;;11.40;74.30;;;;;;4995588;28;20034;-77
2022/02/03 00:50:41;;;;;;;3.38;1.40;;;11.30;74.20;;;;;;5029775;28;20067;-77
2022/02/03 00:53:13;;;;;;;3.80;1.50;;;11.40;74.40;;;;;;5029068;28;20071;-78
2022/02/03 00:55:43;;;;;;;3.73;1.63;;;11.30;74.20;;;;;;5029402;28;20124;-77
2022/02/03 00:58:13;;;;;;;6.10;1.17;;;11.30;74.20;;;;;;5027884;28;20384;-78
2022/02/03 01:00:44;;;;;;;3.17;1.25;;;11.30;74.20;;;;;;4998270;28;20033;-77
2022/02/03 01:03:14;;;;;;;5.72;1.63;;;11.30;74.20;;;;;;5034184;28;20112;-77
2022/02/03 01:05:42;;;;;;;2.50;1.17;;;11.30;74.20;;;;;;5018785;28;20052;-77
2022/02/03 01:08:19;;;;;;;3.10;1.35;;;11.30;74.20;;;;;;5036569;28;20073;-77
2022/02/03 01:10:53;;;;;;;3.60;1.40;;;11.30;74.20;;;;;;5055310;28;20029;-77
2022/02/03 01:13:43;;;;;;;6.00;1.38;;;11.30;74.20;;;;;;5051986;28;20045;-77
2022/02/03 01:21:36;;;;;;;4.55;1.15;;;11.30;74.20;;;;;;5050816;28;20538;-78
2022/02/03 01:53:40;;;;;;;3.60;1.27;;;11.30;74.00;;;;;;5029799;28;20025;-77
2022/02/03 01:56:12;;;;;;;2.45;1.00;;;11.30;74.00;;;;;;5047754;28;20028;-77
2022/02/03 01:58:47;;;;;;;2.60;1.20;;;11.30;74.00;;;;;;5047864;28;20087;-77
2022/02/03 02:01:14;;;;;;;2.28;1.17;;;11.30;74.00;;;;;;5048202;28;20028;-77
2022/02/03 02:03:49;;;;;;;3.50;1.27;;;11.30;74.00;;;;;;5048142;28;20044;-78
2022/02/03 02:06:33;;;;;;;3.10;1.80;;;11.30;73.90;;;;;;5031958;28;20060;-78
2022/02/03 02:09:45;;;;;;;4.18;1.60;;;11.20;73.70;;;;;;5050132;28;20064;-77
2022/02/03 02:12:42;;;;;;;2.33;1.30;;;11.30;73.90;;;;;;5021400;28;20043;-78
2022/02/03 02:37:57;;;;;;;2.35;1.00;;;11.10;73.60;;;;;;4996420;28;20047;-77
2022/02/03 02:43:06;;;;;;;3.80;1.25;;;11.10;73.60;;;;;;5047291;28;20021;-77
2022/02/03 02:46:00;;;;;;;4.80;1.38;;;11.10;73.60;;;;;;5029184;28;20037;-78
2022/02/03 02:48:56;;;;;;;2.05;1.17;;;11.00;73.40;;;;;;5050198;28;20203;-77
2022/02/03 02:52:04;;;;;;;3.00;1.00;;;11.00;73.40;;;;;;5050414;28;20033;-79
2022/02/03 03:36:16;;;;;;;2.35;0.68;;;10.70;73.30;;;;;;5025459;28;20598;-77
2022/02/03 03:38:47;;;;;;;0.63;0.60;;;10.70;73.30;;;;;;5056698;28;20128;-77
2022/02/03 03:41:18;;;;;;;4.82;2.33;;;10.70;73.30;;;;;;5038621;28;20064;-77
2022/02/03 03:43:54;;;;;;;3.67;1.05;;;10.60;73.20;;;;;;5038840;28;20640;-77
2022/02/03 03:46:38;;;;;;;1.30;1.20;;;10.70;73.40;;;;;;5055317;28;20348;-78
2022/02/03 03:49:26;;;;;;;1.15;0.77;;;10.70;73.40;;;;;;5056735;28;20365;-78
2022/02/03 03:52:01;;;;;;;2.75;1.15;;;10.70;73.40;;;;;;5041460;28;20743;-78
2022/02/03 03:54:47;;;;;;;2.92;0.70;;;10.70;73.30;;;;;;5076480;28;20056;-77
2022/02/03 03:57:47;;;;;;;1.98;0.65;;;10.60;73.20;;;;;;5076481;28;20444;-77
2022/02/03 04:30:05;;;;;;;3.17;0.70;;;10.50;73.10;;;;;;5052807;28;20032;-79
2022/02/03 04:33:05;;;;;;;1.05;0.85;;;10.40;73.00;;;;;;5052551;28;20075;-79
2022/02/03 04:38:38;;;;;;;3.13;0.70;;;10.40;73.00;;;;;;5033200;28;20051;-79
2022/02/03 05:02:58;;;;;;;2.05;1.45;;;10.40;73.00;;;;;;5014354;28;20374;-78
2022/02/03 05:05:53;;;;;;;1.55;0.73;;;10.30;72.80;;;;;;5052399;28;20060;-78
2022/02/03 05:12:05;;;;;;;1.45;0.80;;;10.30;72.90;;;;;;5051969;28;20127;-79
2022/02/03 05:15:15;;;;;;;1.23;1.05;;;10.30;72.90;;;;;;5052377;28;20044;-81
2022/02/03 05:49:59;;;;;;;0.90;0.70;;;10.20;73.00;;;;;;5008823;28;20037;-79
2022/02/03 06:13:48;;;;;;;4.53;0.80;;;10.20;72.90;;;;;;5033420;28;20029;-77
2022/02/03 06:21:51;;;;;;;0.85;0.80;;;10.20;72.90;;;;;;5044813;28;20500;-77
2022/02/03 06:29:37;;;;;;;3.72;1.33;;;10.20;72.90;;;;;;5028881;28;20025;-78
2022/02/03 06:32:03;;;;;;;2.58;1.13;;;10.20;72.90;;;;;;5004389;28;20060;-76
2022/02/03 06:34:29;;;;;;;2.17;1.00;;;10.20;72.90;;;;;;5040659;28;20028;-77
2022/02/03 06:36:55;;;;;;;1.88;1.10;;;10.20;72.90;;;;;;5026889;28;20025;-78
2022/02/03 06:39:29;;;;;;;2.05;1.08;;;10.20;73.20;;;;;;5009513;28;20033;-88
2022/02/03 06:42:00;;;;;;;1.73;1.10;;;10.20;73.40;;;;;;5036945;28;20480;-78
2022/02/03 06:44:34;;;;;;;1.60;1.38;;;10.30;73.60;;;;;;5044562;28;20470;-81
2022/02/03 06:47:11;;;;;;;2.03;1.52;;;10.30;73.60;;;;;;5026517;28;20052;-79
2022/02/03 06:52:15;;;;;;;1.73;1.27;;;10.30;73.60;;;;;;5033585;28;20021;-80
2022/02/03 06:57:24;;;;;;;3.03;1.60;;;10.30;73.60;;;;;;5036235;28;20112;-79
2022/02/03 07:00:01;;;;;;;2.78;1.50;;;10.30;73.60;;;;;;5040934;28;20033;-80
2022/02/03 07:02:31;;;;;;;2.75;1.40;;;10.30;73.70;;;;;;5021536;28;21216;-79
2022/02/03 07:04:57;;;;;;;1.98;1.52;;;10.30;73.70;;;;;;5041348;28;20079;-78
2022/02/03 07:07:25;;;;;;;2.00;1.55;;;10.30;73.70;;;;;;5040136;28;20132;-80
2022/02/03 07:09:52;;;;;;;1.67;1.50;;;10.30;73.70;;;;;;5046747;28;20098;-82
2022/02/03 07:12:21;;;;;;;2.03;1.65;;;10.20;73.50;;;;;;5047030;28;20087;-81
2022/02/03 07:14:48;;;;;;;1.88;1.60;;;10.30;73.70;;;;;;5034895;28;20029;-82
2022/02/03 07:17:14;;;;;;;2.72;1.67;;;10.20;73.60;;;;;;5046505;28;20060;-79
2022/02/03 07:19:46;;;;;;;2.47;1.55;;;10.20;73.60;;;;;;5044888;28;20378;-80
2022/02/03 07:22:13;;;;;;;2.85;1.48;;;10.20;73.60;;;;;;5045546;28;20033;-79
2022/02/03 07:24:39;;;;;;;2.53;1.55;;;10.20;73.70;;;;;;5045458;28;20045;-77
2022/02/03 07:27:05;;;;;;;2.45;2.05;;;10.20;73.60;;;;;;5020531;28;20032;-80
2022/02/03 07:29:31;;;;;;;1.92;1.65;;;10.20;73.70;;;;;;5035581;28;20269;-77
2022/02/03 07:31:57;;;;;;;1.73;1.40;;;10.20;73.70;;;;;;5028917;28;20032;-80
2022/02/03 07:34:23;;;;;;;2.90;1.95;;;10.20;73.70;;;;;;5017567;28;20037;-78
2022/02/03 07:36:49;;;;;;;1.50;1.40;;;10.20;73.60;;;;;;5009262;28;20040;-81
2022/02/03 07:39:15;;;;;;;2.53;1.92;;;10.20;73.60;;;;;;5027607;28;20500;-82
2022/02/03 07:41:42;;;;;;;1.73;1.60;;;10.20;73.60;;;;;;5030617;28;20029;-80
2022/02/03 07:44:10;;;;;;;2.25;1.70;;;10.20;73.60;;;;;;5030053;28;20032;-81
2022/02/03 07:46:36;;;;;;;2.17;1.58;;;10.20;73.60;;;;;;4993207;28;20036;-81
2022/02/03 07:49:02;;;;;;;2.17;1.90;;;10.20;73.60;;;;;;5028053;28;20093;-81
2022/02/03 07:51:29;;;;;;;3.30;2.50;;;10.20;73.60;;;;;;5010857;28;20373;-81
2022/02/03 07:53:55;;;;;;;3.67;1.65;;;10.20;73.60;;;;;;5028735;28;20076;-80
2022/02/03 07:56:21;;;;;;;2.10;1.70;;;10.20;73.60;;;;;;5028263;28;20083;-81
2022/02/03 07:58:47;;;;;;;2.25;2.00;;;10.20;73.50;;;;;;5028009;28;20032;-81
2022/02/03 08:01:14;;;;;;;2.45;1.40;;;10.20;73.60;;;;;;5012749;28;20477;-80
2022/02/03 08:03:43;;;;;;;2.22;1.70;;;10.30;73.70;;;;;;5030553;28;20026;-80
2022/02/03 08:06:14;;;;;;;1.90;1.60;;;10.20;73.50;;;;;;5029941;28;20037;-80
2022/02/03 08:08:46;;;;;;;3.35;2.45;;;10.20;73.50;;;;;;5012200;28;20045;-81
2022/02/03 08:11:18;;;;;;;14.07;4.05;;;10.20;73.50;;;;;;5029857;28;20066;-81
2022/02/03 08:13:51;;;;;;;3.35;2.20;;;10.20;73.50;;;;;;5030061;28;20088;-80
2022/02/03 08:16:27;;;;;;;1.77;1.40;;;10.20;73.50;;;;;;5012230;28;20026;-82
2022/02/03 08:19:02;;;;;;;2.53;1.80;;;10.30;73.70;;;;;;5029600;28;20037;-83
2022/02/03 08:21:30;;;;;;;1.90;1.70;;;10.20;73.50;;;;;;5030005;28;20025;-80
2022/02/03 08:26:49;;;;;;;1.73;1.40;;;10.30;73.60;;;;;;4993643;28;20034;-80
2022/02/03 08:29:32;;;;;;;1.75;1.63;;;10.30;73.50;;;;;;5045866;28;20029;-81
2022/02/03 08:32:17;;;;;;;1.58;1.40;;;10.30;73.50;;;;;;5037443;28;20061;-79
2022/02/03 08:34:59;;;;;;;2.20;1.73;;;10.30;73.50;;;;;;5013363;28;20107;-80
2022/02/03 08:38:12;;;;;;;1.75;1.40;;;10.30;73.50;;;;;;4996709;28;20034;-80
2022/02/03 08:40:42;;;;;;;2.15;1.73;;;10.30;73.40;;;;;;5025650;28;20041;-80
2022/02/03 08:43:09;;;;;;;1.63;1.35;;;10.30;73.40;;;;;;5030275;28;20037;-81
2022/02/03 08:45:35;;;;;;;3.13;1.77;;;10.40;73.60;;;;;;5029631;28;20086;-81
2022/02/03 08:48:02;;;;;;;1.90;1.67;;;10.40;73.50;;;;;;5011861;28;20041;-82
2022/02/03 08:50:28;;;;;;;2.88;1.80;;;10.40;73.50;;;;;;5028692;28;20025;-80
2022/02/03 08:53:04;;;;;;;2.13;1.67;;;10.40;73.50;;;;;;5029683;28;20040;-79
2022/02/03 08:59:02;;;;;;;1.80;1.70;;;10.50;73.70;;;;;;5029766;28;20060;-79
2022/02/03 09:56:31;;;;;;;1.95;1.38;;;11.40;73.50;;;;;;5032788;28;20025;-79
2022/02/03 09:58:40;;;;;;;2.40;1.33;;;11.40;73.50;;;;;;5045044;28;20124;-79
2022/02/03 10:01:10;;;;;;;1.92;1.55;;;11.40;73.60;;;;;;5047706;28;20251;-79
2022/02/03 10:06:21;;;;;;;3.38;1.25;;;11.40;73.60;;;;;;5047108;28;20037;-79
2022/02/03 10:08:52;;;;;;;2.05;1.35;;;11.50;73.80;;;;;;5047627;28;20040;-79
2022/02/03 10:11:24;;;;;;;1.40;1.30;;;11.50;73.60;;;;;;5047972;28;20036;-82
2022/02/03 10:13:55;;;;;;;1.80;1.52;;;11.60;73.60;;;;;;5013330;28;20123;-80
2022/02/03 10:16:27;;;;;;;1.42;0.80;;;11.70;73.70;;;;;;5048025;28;20021;-81
2022/02/03 10:19:20;;;;;;;2.42;2.22;;;11.80;73.70;;;;;;5029275;28;20079;-81
2022/02/03 10:21:49;;;;;;;2.03;1.03;;;11.90;73.70;;;;;;5047677;28;20044;-77
2022/02/03 10:24:18;;;;;;;1.83;1.25;;;12.00;73.60;;;;;;5047759;28;20393;-78
2022/02/03 10:26:50;;;;;;;2.10;1.30;;;12.00;73.50;;;;;;5047578;28;20033;-78
2022/02/03 10:29:33;;;;;;;2.00;1.63;;;12.10;73.50;;;;;;5047701;28;20114;-78
2022/02/03 10:31:59;;;;;;;1.37;1.17;;;12.10;73.40;;;;;;5047743;28;20506;-77
2022/02/03 10:34:29;;;;;;;2.33;1.23;;;12.20;73.50;;;;;;5047223;28;20044;-80
2022/02/03 10:37:14;;;;;;;2.17;1.17;;;12.20;73.40;;;;;;5029856;28;20075;-79
2022/02/03 10:45:39;;;;;;;1.45;1.35;;;12.30;73.40;;;;;;5029920;28;20075;-79
2022/02/03 10:48:28;;;;;;;3.58;1.40;;;12.40;73.50;;;;;;5046935;28;20087;-80
2022/02/03 11:05:26;;;;;;;3.03;1.20;;;12.70;73.60;;;;;;5023345;28;20030;-82
2022/02/03 11:10:27;;;;;;;1.48;1.38;;;13.00;73.70;;;;;;5010621;28;20116;-81
2022/02/03 11:12:54;;;;;;;1.30;1.20;;;13.10;73.60;;;;;;5027630;28;20037;-81
2022/02/03 11:15:24;;;;;;;1.10;0.98;;;13.10;73.40;;;;;;5012846;28;20025;-82
2022/02/03 11:17:54;;;;;;;3.67;1.02;;;13.20;73.40;;;;;;5011906;28;20060;-82
2022/02/03 11:20:23;;;;;;;1.67;1.15;;;13.30;73.40;;;;;;5011249;28;20034;-81
2022/02/03 11:22:57;;;;;;;1.38;0.95;;;13.40;73.50;;;;;;5010018;28;20034;-81
2022/02/03 11:39:15;;;;;;;2.13;0.90;;;13.80;73.30;;;;;;5014482;28;20029;-82
2022/02/03 12:26:22;;;;;;;;;;;14.30;73.20;;;;;;5012224;28;20038;-80
2022/02/03 12:29:11;;;;;;;5.30;1.27;;;14.30;73.20;;;;;;5012376;28;19920;-80
2022/02/03 12:37:11;;;;;;;3.95;1.00;;;14.50;73.10;;;;;;5029970;28;20120;-79
2022/02/03 12:39:48;;;;;;;3.10;1.25;;;14.50;73.10;;;;;;5029522;28;20109;-81
2022/02/03 12:42:32;;;;;;;2.72;1.10;;;14.50;73.00;;;;;;5023528;28;20088;-79
2022/02/03 12:45:23;;;;;;;3.17;1.13;;;14.50;73.10;;;;;;5027040;28;20025;-80
2022/02/03 12:47:54;;;;;;;3.60;1.40;;;14.40;72.90;;;;;;5029344;28;20037;-80
2022/02/03 12:50:24;;;;;;;3.97;1.50;;;14.50;73.10;;;;;;5011546;28;20036;-78
2022/02/03 12:52:51;;;;;;;3.05;1.20;;;14.50;73.10;;;;;;5001132;28;20046;-79
2022/02/03 12:55:20;;;;;;;1.52;0.80;;;14.50;73.10;;;;;;5001612;28;20412;-80
2022/02/03 12:57:50;;;;;;;3.35;0.85;;;14.50;72.90;;;;;;5029404;28;20055;-80
2022/02/03 13:00:26;;;;;;;3.55;1.58;;;14.50;72.90;;;;;;5027706;28;20120;-80
2022/02/03 13:02:54;;;;;;;5.05;1.80;;;14.60;73.10;;;;;;5011494;28;20028;-81
2022/02/03 13:05:29;;;;;;;1.75;1.25;;;14.60;73.00;;;;;;5011429;28;20028;-81
2022/02/03 13:07:58;;;;;;;2.90;0.98;;;14.70;73.10;;;;;;5030441;28;20056;-80
2022/02/03 13:10:31;;;;;;;3.25;1.02;;;14.70;73.00;;;;;;5030560;28;20091;-82
2022/02/03 13:13:11;;;;;;;;;;;14.80;73.00;;;;;;5031557;28;20058;-79
2022/02/03 13:15:41;;;;;;;2.78;1.15;;;14.80;72.90;;;;;;5048594;28;19908;-81
2022/02/03 13:18:17;;;;;;;2.60;0.90;;;14.90;72.90;;;;;;5030193;28;20025;-81
2022/02/03 13:20:54;;;;;;;2.28;1.65;;;14.90;72.80;;;;;;5048761;28;20503;-81
2022/02/03 13:23:25;;;;;;;6.72;1.88;;;15.00;72.90;;;;;;5048800;28;20507;-79
2022/02/03 13:28:47;;;;;;;3.30;1.40;;;15.10;72.90;;;;;;5048520;28;20041;-82
2022/02/03 13:31:24;;;;;;;2.28;0.90;;;15.10;72.80;;;;;;5031039;28;20356;-80
2022/02/03 13:34:06;;;;;;;2.80;0.98;;;15.10;72.70;;;;;;5013581;28;20033;-81
2022/02/03 13:36:39;;;;;;;2.00;1.35;;;15.10;72.60;;;;;;5048413;28;20122;-80
2022/02/03 13:39:13;;;;;;;;;;;15.10;72.60;;;;;;5048709;28;20463;-81
2022/02/03 13:41:43;;;;;;;4.20;2.38;;;15.10;72.60;;;;;;5048762;28;19916;-83
2022/02/03 13:44:17;;;;;;;2.05;1.00;;;15.10;72.60;;;;;;5048748;28;20535;-83
2022/02/03 13:46:43;;;;;;;1.67;0.70;;;15.20;72.70;;;;;;5048324;28;20045;-80
2022/02/03 13:49:14;;;;;;;4.15;1.35;;;15.20;72.70;;;;;;5047736;28;20098;-80
2022/02/03 13:51:41;;;;;;;2.67;0.80;;;15.40;72.80;;;;;;5048024;28;20542;-79
2022/02/03 13:54:30;;;;;;;3.30;1.00;;;15.40;72.70;;;;;;5048253;28;20033;-77
2022/02/03 14:21:25;;;;;;;1.10;0.57;;;15.50;72.30;;;;;;5047748;28;20539;-78
2022/02/03 14:29:26;;;;;;;2.50;0.80;;;15.50;72.30;;;;;;5047472;28;20045;-79
2022/02/03 14:32:03;;;;;;;3.42;0.90;;;15.50;72.20;;;;;;5029769;28;20029;-78
2022/02/03 14:34:32;;;;;;;3.63;0.90;;;15.50;72.20;;;;;;5047323;28;20037;-79
2022/02/03 14:37:05;;;;;;;3.55;0.90;;;15.50;72.20;;;;;;5013501;28;20029;-85
2022/02/03 14:42:04;;;;;;;2.28;0.98;;;15.50;72.20;;;;;;5030954;28;20029;-87
2022/02/03 14:44:30;;;;;;;2.15;0.68;;;15.40;72.00;;;;;;5030019;28;20029;-85
2022/02/03 14:46:56;;;;;;;2.20;0.98;;;15.40;72.10;;;;;;5029474;28;20028;-84
2022/02/03 14:49:22;;;;;;;2.63;0.75;;;15.40;72.10;;;;;;5021946;28;20037;-85
2022/02/03 14:51:55;;;;;;;2.25;0.70;;;15.40;72.10;;;;;;5024891;28;20022;-81
2022/02/03 14:59:35;;;;;;;1.38;0.60;;;15.30;72.10;;;;;;5025409;28;20116;-87
2022/02/03 15:02:07;;;;;;;2.47;0.90;;;15.30;72.20;;;;;;5048195;28;20033;-84
2022/02/03 15:04:40;;;;;;;1.17;0.80;;;15.20;72.10;;;;;;5030392;28;20094;-86
2022/02/03 15:07:09;;;;;;;2.10;1.02;;;15.20;72.10;;;;;;5047919;28;20045;-87
2022/02/03 15:15:01;;;;;;;2.22;0.82;;;15.20;72.00;;;;;;5027303;28;20033;-83
2022/02/03 15:17:33;;;;;;;1.42;0.60;;;15.20;72.00;;;;;;5036818;28;20287;-84
2022/02/03 15:19:59;;;;;;;3.77;0.97;;;15.20;72.10;;;;;;5027452;28;20393;-83
2022/02/03 15:22:26;;;;;;;3.00;1.02;;;15.10;72.00;;;;;;5026988;28;20064;-84
2022/02/03 15:24:52;;;;;;;2.85;0.68;;;15.20;72.20;;;;;;5026756;28;20455;-83
2022/02/03 15:27:18;;;;;;;3.22;1.20;;;15.10;72.00;;;;;;5010338;28;20124;-88
2022/02/03 15:29:47;;;;;;;2.78;0.93;;;15.10;72.00;;;;;;5027382;28;20022;-84
2022/02/03 15:32:15;;;;;;;3.63;0.88;;;15.10;72.00;;;;;;5027393;28;20033;-84
2022/02/03 15:34:41;;;;;;;2.05;1.40;;;15.10;72.00;;;;;;5010127;28;20030;-83
2022/02/03 15:37:16;;;;;;;2.28;0.68;;;15.00;72.40;;;;;;5026618;28;20029;-86
2022/02/03 15:39:48;;;;;;;2.45;0.85;;;15.00;71.90;;;;;;5027988;28;20124;-87
2022/02/03 15:42:26;;;;;;;4.22;0.80;;;15.00;71.80;;;;;;5029239;28;20027;-87
2022/02/03 15:44:54;;;;;;;3.65;1.40;;;15.00;71.90;;;;;;5030476;28;20043;-87
2022/02/03 15:47:47;;;;;;;3.28;0.90;;;15.00;71.90;;;;;;5030418;28;20049;-88
2022/02/03 15:50:39;;;;;;;3.53;0.80;;;14.90;71.80;;;;;;5033643;28;20076;-86
2022/02/03 16:17:17;;;;;;;2.15;0.57;;;14.20;71.90;;;;;;5050411;28;20491;-84
2022/02/03 16:22:41;;;;;;;3.50;0.85;;;14.10;71.90;;;;;;5050669;28;20383;-83
2022/02/03 16:54:52;;;;;;;5.88;1.73;;;13.50;72.00;;;;;;5050360;28;20436;-81
2022/02/03 16:57:22;;;;;;;5.25;1.40;;;13.50;72.10;;;;;;5050928;28;20114;-81
2022/02/03 17:00:06;;;;;;;4.60;1.30;;;13.40;72.00;;;;;;5050164;28;20029;-79
2022/02/03 17:02:32;;;;;;;4.55;2.15;;;13.40;72.10;;;;;;5049970;28;20468;-82
2022/02/03 17:04:58;;;;;;;7.95;2.75;;;13.30;72.00;;;;;;5032315;28;20029;-82
2022/02/03 17:07:25;;;;;;;4.72;1.55;;;13.30;72.10;;;;;;5049370;28;20049;-83
2022/02/03 17:09:52;;;;;;;3.90;1.60;;;13.20;72.00;;;;;;5031798;28;20048;-83
2022/02/03 17:12:19;;;;;;;5.10;1.40;;;13.20;72.10;;;;;;5030592;28;20362;-82
2022/02/03 17:14:45;;;;;;;1.90;1.10;;;13.20;72.20;;;;;;5049368;28;20091;-81
2022/02/03 17:17:13;;;;;;;4.05;1.38;;;13.10;72.10;;;;;;5049132;28;20272;-83
2022/02/03 17:19:39;;;;;;;3.25;1.40;;;13.20;72.30;;;;;;5048544;28;20025;-82
2022/02/03 17:22:07;;;;;;;4.57;1.30;;;13.10;72.20;;;;;;5049010;28;20503;-82
2022/02/03 17:24:36;;;;;;;4.03;1.58;;;13.10;72.30;;;;;;5044484;28;20022;-80
2022/02/03 17:27:22;;;;;;;3.00;1.40;;;13.10;72.30;;;;;;5035713;28;20053;-78
2022/02/03 17:55:23;;;;;;;3.97;1.10;;;12.90;72.50;;;;;;5030383;28;20101;-84
2022/02/03 18:08:26;;;;;;;3.40;0.88;;;12.80;72.80;;;;;;5026323;28;20045;-86
2022/02/03 18:30:09;;;;;;;2.40;0.90;;;12.80;73.20;;;;;;5015291;28;20041;-81
2022/02/03 18:35:21;;;;;;;9.98;2.85;;;12.70;73.10;;;;;;5028393;28;20409;-82
2022/02/03 18:46:10;;;;;;;3.53;1.35;;;12.70;73.30;;;;;;5047945;28;20051;-88
2022/02/03 18:51:17;;;;;;;2.55;1.27;;;12.70;73.40;;;;;;5047998;28;20036;-88
2022/02/03 18:59:01;;;;;;;1.80;0.98;;;12.70;73.40;;;;;;5014077;28;20094;-86
2022/02/03 19:59:31;;;;;;;2.72;1.00;;;12.60;73.60;;;;;;4987915;28;20033;-81
2022/02/03 20:03:49;;;;;;;2.50;1.38;;;12.50;73.40;;;;;;5034763;28;20029;-81
2022/02/03 20:08:57;;;;;;;3.22;1.17;;;12.50;73.50;;;;;;5046381;28;20583;-82
2022/02/03 20:11:25;;;;;;;4.13;1.23;;;12.50;73.50;;;;;;5016766;28;20037;-82
2022/02/03 20:13:51;;;;;;;3.53;0.93;;;12.50;73.60;;;;;;5030381;28;20045;-82
2022/02/03 20:16:21;;;;;;;4.30;1.17;;;12.50;73.70;;;;;;5012349;28;20056;-81
2022/02/03 20:18:47;;;;;;;4.00;1.20;;;12.50;73.70;;;;;;5019322;28;20029;-81
2022/02/03 20:21:13;;;;;;;5.00;1.75;;;12.50;73.80;;;;;;5049826;28;20043;-81
2022/02/03 20:23:43;;;;;;;3.40;1.50;;;12.40;73.70;;;;;;5049251;28;20020;-81
2022/02/03 20:26:11;;;;;;;4.40;1.33;;;12.40;73.70;;;;;;5049810;28;20111;-81
2022/02/03 20:28:37;;;;;;;3.60;1.77;;;12.40;73.80;;;;;;5031440;28;20041;-79
2022/02/03 20:31:04;;;;;;;4.32;1.60;;;12.40;73.80;;;;;;5049919;28;20476;-80
2022/02/03 20:33:30;;;;;;;4.63;1.45;;;12.40;73.90;;;;;;5049737;28;20186;-80
2022/02/03 20:35:56;;;;;;;4.72;1.38;;;12.30;73.70;;;;;;5049150;28;20025;-80
2022/02/03 20:38:23;;;;;;;3.10;1.10;;;12.30;73.80;;;;;;5031853;28;20168;-80
2022/02/03 20:40:49;;;;;;;3.63;1.20;;;12.40;74.00;;;;;;5031447;28;20032;-80
2022/02/03 20:43:16;;;;;;;2.83;1.40;;;12.30;73.90;;;;;;5049904;28;20033;-81
2022/02/03 20:45:44;;;;;;;3.88;1.50;;;12.30;73.90;;;;;;5049597;28;20044;-81
2022/02/03 20:48:11;;;;;;;3.13;1.25;;;12.30;73.90;;;;;;5030452;28;20519;-81
2022/02/03 20:50:39;;;;;;;2.75;1.45;;;12.30;74.00;;;;;;5032012;28;20029;-81
2022/02/03 20:53:06;;;;;;;3.63;1.30;;;12.30;73.90;;;;;;5046825;28;20048;-81
2022/02/03 20:55:32;;;;;;;4.20;1.50;;;12.30;74.00;;;;;;5011919;28;20548;-81
2022/02/03 20:57:59;;;;;;;2.33;0.77;;;12.20;73.80;;;;;;5011914;28;20365;-81
2022/02/03 21:00:37;;;;;;;4.03;2.05;;;12.30;73.90;;;;;;5029696;28;20071;-81
2022/02/03 21:03:15;;;;;;;3.22;1.08;;;12.20;74.30;;;;;;5029269;28;20075;-80
2022/02/03 21:05:42;;;;;;;3.03;1.20;;;12.20;73.70;;;;;;5011266;28;20022;-80
2022/02/03 21:08:08;;;;;;;2.72;1.13;;;12.20;73.70;;;;;;5031153;28;20085;-79
2022/02/03 21:10:34;;;;;;;2.58;1.10;;;12.10;73.50;;;;;;5030575;28;20396;-80
2022/02/03 21:13:00;;;;;;;3.72;1.70;;;12.20;73.70;;;;;;5048208;28;20033;-80
2022/02/03 21:15:33;;;;;;;2.90;1.27;;;12.10;73.50;;;;;;5048739;28;20507;-81
2022/02/03 21:18:02;;;;;;;5.97;1.48;;;12.10;73.40;;;;;;5049377;28;20397;-80
2022/02/03 21:20:28;;;;;;;3.20;1.02;;;12.10;73.40;;;;;;5042095;28;20040;-81
2022/02/03 21:22:55;;;;;;;2.38;1.20;;;12.10;73.40;;;;;;5014236;28;20029;-80
2022/02/03 21:27:56;;;;;;;3.03;1.25;;;12.10;73.30;;;;;;5054406;28;20043;-80
2022/02/03 21:30:23;;;;;;;2.25;1.13;;;12.10;73.30;;;;;;5042011;28;20100;-80
2022/02/03 21:32:50;;;;;;;3.53;1.60;;;12.10;73.30;;;;;;5030373;28;20039;-80
2022/02/03 21:35:20;;;;;;;6.72;1.88;;;12.10;73.30;;;;;;5048448;28;20476;-81
2022/02/03 21:37:48;;;;;;;2.25;1.42;;;12.10;73.30;;;;;;5028772;28;20575;-81
2022/02/03 21:40:15;;;;;;;4.88;1.20;;;12.10;73.20;;;;;;5045899;28;20039;-82
2022/02/03 21:42:41;;;;;;;3.28;1.60;;;12.10;73.20;;;;;;5034176;28;20116;-80
2022/02/03 21:45:08;;;;;;;2.70;1.50;;;12.10;73.20;;;;;;5058242;28;20455;-82
2022/02/03 21:47:35;;;;;;;2.88;1.52;;;12.10;73.10;;;;;;5023267;28;20094;-81
2022/02/03 21:50:05;;;;;;;2.53;1.27;;;12.10;73.10;;;;;;5015291;28;20060;-82
2022/02/03 21:52:37;;;;;;;2.60;1.33;;;12.10;73.00;;;;;;5018140;28;20033;-81
2022/02/03 21:55:07;;;;;;;2.13;1.40;;;12.20;73.20;;;;;;5011831;28;20030;-81
2022/02/03 21:57:34;;;;;;;3.22;1.67;;;12.10;73.00;;;;;;5028231;28;20026;-80
2022/02/03 22:00:00;;;;;;;6.45;2.53;;;12.20;73.10;;;;;;5027956;28;20026;-81
2022/02/03 22:02:27;;;;;;;4.53;1.30;;;12.20;73.10;;;;;;5027296;28;20056;-80
2022/02/03 22:04:53;;;;;;;4.75;1.50;;;12.10;72.80;;;;;;5028580;28;20033;-81
2022/02/03 22:07:20;;;;;;;3.97;1.40;;;12.10;72.80;;;;;;5028119;28;20536;-82
2022/02/03 22:09:46;;;;;;;3.92;1.70;;;12.10;72.80;;;;;;5027682;28;20040;-83
2022/02/03 22:12:12;;;;;;;4.18;1.45;;;12.10;72.70;;;;;;4994304;28;20029;-83
2022/02/03 22:14:38;;;;;;;2.25;1.30;;;12.10;72.70;;;;;;5001745;28;20528;-81
2022/02/03 22:17:06;;;;;;;3.45;1.80;;;12.10;72.70;;;;;;5012691;28;20590;-81
2022/02/03 22:19:31;;;;;;;2.78;1.45;;;12.10;72.70;;;;;;5021783;28;20171;-81
2022/02/03 22:46:10;;;;;;;3.17;1.25;;;12.10;72.50;;;;;;5027676;28;20034;-82
2022/02/03 22:48:37;;;;;;;3.30;1.40;;;12.10;72.50;;;;;;5027159;28;20334;-81
2022/02/03 22:51:04;;;;;;;2.00;1.20;;;12.10;72.50;;;;;;5009944;28;20456;-82
2022/02/03 22:53:33;;;;;;;5.18;1.75;;;12.00;72.20;;;;;;4993119;28;20026;-82
2022/02/03 22:56:10;;;;;;;4.18;1.40;;;12.10;72.90;;;;;;5010018;28;20393;-82
2022/02/03 23:01:23;;;;;;;5.47;1.77;;;12.00;72.10;;;;;;5029325;28;20040;-83
2022/02/03 23:03:49;;;;;;;3.60;1.90;;;12.00;72.10;;;;;;5029654;28;20041;-83
2022/02/03 23:06:15;;;;;;;2.40;1.15;;;12.10;72.30;;;;;;5015152;28;20194;-83
2022/02/03 23:08:55;;;;;;;5.38;1.77;;;12.00;72.70;;;;;;5030614;28;20109;-83
2022/02/03 23:19:15;;;;;;;4.45;1.73;;;12.00;72.20;;;;;;5029639;28;20496;-83
2022/02/03 23:21:47;;;;;;;3.22;1.80;;;12.00;72.30;;;;;;5033552;28;20029;-83
2022/02/03 23:24:14;;;;;;;3.67;1.60;;;12.00;72.30;;;;;;5050011;28;20074;-83
2022/02/03 23:26:41;;;;;;;1.58;1.25;;;11.90;72.10;;;;;;5033985;28;20044;-83
2022/02/03 23:29:12;;;;;;;5.05;1.40;;;12.00;72.30;;;;;;5040918;28;20072;-83
2022/02/03 23:31:47;;;;;;;3.13;1.25;;;11.90;72.20;;;;;;5031480;28;20035;-83
2022/02/03 23:34:13;;;;;;;3.08;1.20;;;11.90;72.20;;;;;;5030800;28;20476;-81
2022/02/03 23:36:39;;;;;;;3.75;1.52;;;11.90;72.20;;;;;;5031036;28;20029;-82
2022/02/03 23:44:32;;;;;;;3.10;1.65;;;11.90;72.80;;;;;;5013239;28;20033;-81
